createdAt,value
2018-02-06T00:00:35.493Z,-1.90
2018-02-06T00:03:07.054Z,-2.00
2018-02-06T00:05:38.704Z,-1.90
2018-02-06T00:08:10.328Z,-1.90
2018-02-06T00:10:41.161Z,-1.90
2018-02-06T00:13:12.083Z,-1.90
2018-02-06T00:15:43.371Z,-1.90
2018-02-06T00:18:14.248Z,-1.90
2018-02-06T00:20:45.553Z,-1.90
2018-02-06T00:23:16.457Z,-2.00
2018-02-06T00:25:48.788Z,-1.90
2018-02-06T00:28:20.420Z,-1.90
2018-02-06T00:30:52.041Z,-1.90
2018-02-06T00:33:23.337Z,-1.90
2018-02-06T00:35:54.165Z,-1.90
2018-02-06T00:38:25.732Z,-1.90
2018-02-06T00:40:56.626Z,-2.00
2018-02-06T00:43:28.293Z,-2.00
2018-02-06T00:45:59.173Z,-2.00
2018-02-06T00:48:29.982Z,-2.00
2018-02-06T00:51:00.841Z,-2.00
2018-02-06T00:53:31.658Z,-2.10
2018-02-06T00:56:02.520Z,-2.10
2018-02-06T00:58:33.329Z,-2.10
2018-02-06T01:01:04.173Z,-2.20
2018-02-06T01:03:34.995Z,-2.20
2018-02-06T01:06:06.617Z,-2.20
2018-02-06T01:08:38.240Z,-2.20
2018-02-06T01:11:09.101Z,-2.30
2018-02-06T01:13:40.001Z,-2.20
2018-02-06T01:16:12.622Z,-2.20
2018-02-06T01:18:43.482Z,-2.20
2018-02-06T01:21:15.844Z,-2.20
2018-02-06T01:23:48.598Z,-2.20
2018-02-06T01:26:19.428Z,-2.20
2018-02-06T01:28:50.734Z,-2.20
2018-02-06T01:31:22.629Z,-2.20
2018-02-06T01:33:54.206Z,-2.20
2018-02-06T01:36:25.042Z,-2.20
2018-02-06T01:38:55.915Z,-2.20
2018-02-06T01:41:26.877Z,-2.20
2018-02-06T01:43:59.069Z,-2.20
2018-02-06T01:46:29.949Z,-2.20
2018-02-06T01:49:00.798Z,-2.50
2018-02-06T01:51:31.622Z,-2.30
2018-02-06T01:54:02.444Z,-2.30
2018-02-06T01:56:33.301Z,-2.30
2018-02-06T01:59:04.141Z,-2.30
2018-02-06T02:01:35.616Z,-2.20
2018-02-06T02:04:06.596Z,-2.30
2018-02-06T02:06:38.930Z,-2.40
2018-02-06T02:09:09.769Z,-2.50
2018-02-06T02:11:41.942Z,-2.50
2018-02-06T02:14:14.909Z,-2.60
2018-02-06T02:16:45.817Z,-2.60
2018-02-06T02:19:17.392Z,-2.50
2018-02-06T02:21:48.221Z,-2.60
2018-02-06T02:24:19.105Z,-2.70
2018-02-06T02:26:51.145Z,-2.70
2018-02-06T02:29:22.830Z,-2.80
2018-02-06T02:31:53.899Z,-2.70
2018-02-06T02:34:25.329Z,-2.70
2018-02-06T02:36:56.329Z,-2.80
2018-02-06T02:39:27.173Z,-2.70
2018-02-06T04:40:36.673Z,-3.00
2018-02-06T04:43:08.214Z,-3.00
2018-02-06T04:45:42.284Z,-3.00
2018-02-06T04:48:13.537Z,-3.00
2018-02-06T04:50:44.827Z,-3.00
2018-02-06T04:53:15.946Z,-3.00
2018-02-06T04:55:48.340Z,-2.90
2018-02-06T04:58:19.876Z,-2.90
2018-02-06T05:00:50.809Z,-2.70
2018-02-06T05:03:21.874Z,-2.70
2018-02-06T05:05:52.778Z,-2.60
2018-02-06T05:08:23.677Z,-2.50
2018-02-06T05:10:54.536Z,-2.40
2018-02-06T05:13:26.113Z,-2.40
2018-02-06T05:15:56.987Z,-2.40
2018-02-06T05:18:27.866Z,-2.30
2018-02-06T05:20:59.441Z,-2.30
2018-02-06T05:23:30.297Z,-2.30
2018-02-06T05:26:01.111Z,-2.20
2018-02-06T05:28:32.003Z,-2.20
2018-02-06T05:31:02.889Z,-2.30
2018-02-06T05:33:34.049Z,-2.30
2018-02-06T05:36:05.568Z,-2.30
2018-02-06T05:38:37.193Z,-2.50
2018-02-06T05:41:08.151Z,-2.50
2018-02-06T05:43:39.537Z,-2.60
2018-02-06T05:46:10.449Z,-2.60
2018-02-06T05:48:41.493Z,-2.70
2018-02-06T05:51:13.116Z,-2.70
2018-02-06T05:53:44.961Z,-2.70
2018-02-06T05:56:16.141Z,-2.80
2018-02-06T05:58:49.528Z,-2.70
2018-02-06T06:01:20.549Z,-2.80
2018-02-06T06:03:51.465Z,-2.80
2018-02-06T06:06:22.295Z,-2.90
2018-02-06T06:08:53.482Z,-2.90
2018-02-06T06:11:25.045Z,-2.90
2018-02-06T06:13:55.859Z,-3.00
2018-02-06T06:16:27.493Z,-3.00
2018-02-06T06:18:58.317Z,-3.00
2018-02-06T06:21:29.845Z,-3.00
2018-02-06T06:24:00.842Z,-3.10
2018-02-06T06:26:31.670Z,-3.10
2018-02-06T06:29:03.313Z,-3.10
2018-02-06T06:31:34.140Z,-3.10
2018-02-06T06:34:05.345Z,-3.10
2018-02-06T06:36:36.184Z,-3.10
2018-02-06T06:39:07.317Z,-3.10
2018-02-06T06:41:38.213Z,-3.10
2018-02-06T06:44:09.890Z,-3.20
2018-02-06T06:46:40.732Z,-3.20
2018-02-06T06:49:11.660Z,-3.20
2018-02-06T06:51:42.502Z,-3.30
2018-02-06T06:54:13.408Z,-3.30
2018-02-06T06:56:45.014Z,-3.30
2018-02-06T06:59:15.960Z,-3.30
2018-02-06T07:01:46.773Z,-3.30
2018-02-06T07:04:18.074Z,-3.30
2018-02-06T07:06:50.350Z,-3.30
2018-02-06T07:09:21.937Z,-3.10
2018-02-06T07:11:52.952Z,-3.20
2018-02-06T07:14:26.969Z,-3.20
2018-02-06T07:16:58.521Z,-3.20
2018-02-06T07:19:32.193Z,-3.10
2018-02-06T07:22:04.043Z,-3.10
2018-02-06T07:24:40.695Z,-3.10
2018-02-06T07:27:13.485Z,-3.00
2018-02-06T07:29:44.447Z,-3.00
2018-02-06T07:32:15.266Z,-3.00
2018-02-06T07:34:47.023Z,-3.00
2018-02-06T07:37:24.324Z,-3.00
2018-02-06T07:39:56.325Z,-2.90
2018-02-06T07:42:27.718Z,-2.80
2018-02-06T07:44:58.579Z,-2.80
2018-02-06T07:47:30.197Z,-2.60
2018-02-06T07:50:01.474Z,-2.60
2018-02-06T07:52:33.002Z,-2.60
2018-02-06T07:57:48.637Z,-2.50
2018-02-06T08:00:20.948Z,-2.30
2018-02-06T08:02:55.769Z,-2.40
2018-02-06T08:05:30.569Z,-2.10
2018-02-06T08:08:01.515Z,-2.10
2018-02-06T08:10:34.024Z,-2.10
2018-02-06T08:13:19.841Z,-2.00
2018-02-06T08:15:52.954Z,-1.90
2018-02-06T08:18:24.239Z,-1.80
2018-02-06T08:21:01.606Z,-1.70
2018-02-06T08:23:37.433Z,-1.60
2018-02-06T08:26:08.507Z,-1.50
2018-02-06T08:28:40.436Z,-1.40
2018-02-06T08:31:13.981Z,-1.40
2018-02-06T08:33:53.766Z,-1.30
2018-02-06T08:36:25.934Z,-1.10
2018-02-06T08:38:59.157Z,-1.00
2018-02-06T08:41:31.119Z,-0.90
2018-02-06T08:44:03.937Z,-0.90
2018-02-06T08:46:36.237Z,-0.90
2018-02-06T08:49:09.732Z,-0.80
2018-02-06T08:51:44.071Z,-0.70
2018-02-06T08:54:15.525Z,-0.70
2018-02-06T08:56:46.376Z,-0.70
2018-02-06T08:59:17.301Z,-0.80
2018-02-06T09:01:48.160Z,-0.90
2018-02-06T09:04:18.980Z,-0.80
2018-02-06T09:06:49.842Z,-0.80
2018-02-06T09:09:20.730Z,-0.80
2018-02-06T09:11:51.757Z,-0.70
2018-02-06T09:14:22.630Z,-0.70
2018-02-06T09:16:53.491Z,-0.60
2018-02-06T09:19:25.793Z,-0.60
2018-02-06T09:21:58.305Z,-0.50
2018-02-06T09:24:29.365Z,-0.50
2018-02-06T09:27:00.270Z,-0.50
2018-02-06T09:29:31.144Z,-0.40
2018-02-06T09:32:02.110Z,-0.40
2018-02-06T09:34:33.737Z,-0.40
2018-02-06T09:37:06.446Z,-0.40
2018-02-06T09:39:38.125Z,-0.60
2018-02-06T09:42:09.362Z,-0.30
2018-02-06T09:44:40.602Z,-0.20
2018-02-06T09:47:11.589Z,-0.20
2018-02-06T09:49:42.387Z,-0.10
2018-02-06T09:52:13.261Z,0.00
2018-02-06T09:54:44.070Z,0.00
2018-02-06T09:57:14.929Z,0.00
2018-02-06T09:59:45.728Z,0.10
2018-02-06T10:02:16.569Z,0.20
2018-02-06T10:04:47.439Z,0.30
2018-02-06T10:07:19.226Z,0.40
2018-02-06T10:09:50.865Z,0.30
2018-02-06T10:12:22.206Z,0.30
2018-02-06T10:14:53.097Z,0.40
2018-02-06T10:17:23.916Z,0.40
2018-02-06T10:19:55.261Z,0.50
2018-02-06T10:22:26.817Z,0.60
2018-02-06T10:25:02.929Z,0.60
2018-02-06T10:31:11.882Z,0.60
2018-02-06T10:33:42.724Z,0.70
2018-02-06T10:36:13.621Z,0.70
2018-02-06T10:38:44.479Z,0.70
2018-02-06T10:41:15.333Z,0.60
2018-02-06T10:43:46.216Z,0.80
2018-02-06T10:46:17.032Z,0.80
2018-02-06T10:48:49.344Z,0.70
2018-02-06T10:51:20.187Z,0.70
2018-02-06T10:53:51.083Z,0.70
2018-02-06T10:56:22.053Z,0.80
2018-02-06T10:58:52.868Z,0.80
2018-02-06T11:01:23.751Z,0.70
2018-02-06T11:03:55.423Z,0.90
2018-02-06T11:06:27.453Z,0.90
2018-02-06T11:08:59.440Z,0.90
2018-02-06T11:11:30.893Z,1.00
2018-02-06T11:14:04.679Z,1.10
2018-02-06T11:16:37.469Z,1.00
2018-02-06T11:19:08.900Z,1.10
2018-02-06T11:21:39.715Z,1.20
2018-02-06T11:24:10.625Z,1.30
2018-02-06T11:26:41.477Z,1.20
2018-02-06T11:29:12.570Z,1.30
2018-02-06T11:31:44.751Z,1.50
2018-02-06T11:34:16.348Z,1.50
2018-02-06T11:36:47.264Z,1.50
2018-02-06T11:39:18.184Z,1.40
2018-02-06T11:41:48.987Z,1.50
2018-02-06T11:44:19.835Z,1.60
2018-02-06T11:46:51.464Z,1.50
2018-02-06T11:49:22.268Z,1.40
2018-02-06T11:51:53.075Z,1.60
2018-02-06T11:54:23.985Z,1.50
2018-02-06T11:56:54.821Z,1.50
2018-02-06T11:59:26.443Z,1.40
2018-02-06T12:01:57.328Z,1.30
2018-02-06T12:04:28.217Z,1.40
2018-02-06T12:06:59.974Z,1.40
2018-02-06T12:09:30.986Z,1.40
2018-02-06T12:12:01.789Z,1.30
2018-02-06T12:14:33.373Z,1.40
2018-02-06T12:17:04.174Z,1.40
2018-02-06T12:19:36.343Z,1.30
2018-02-06T12:22:07.264Z,1.30
2018-02-06T12:24:38.153Z,1.30
2018-02-06T12:27:09.025Z,1.30
2018-02-06T12:29:40.007Z,1.20
2018-02-06T12:32:11.637Z,1.20
2018-02-06T12:34:42.445Z,1.30
2018-02-06T12:37:13.244Z,1.20
2018-02-06T12:39:44.064Z,1.20
2018-02-06T12:42:14.892Z,1.20
2018-02-06T12:44:45.836Z,1.40
2018-02-06T12:47:16.649Z,1.40
2018-02-06T12:49:47.512Z,1.40
2018-02-06T12:52:18.380Z,1.50
2018-02-06T12:54:49.175Z,1.60
2018-02-06T12:57:20.103Z,1.50
2018-02-06T12:59:51.660Z,1.70
2018-02-06T13:02:22.481Z,1.60
2018-02-06T13:04:54.164Z,1.80
2018-02-06T13:07:25.403Z,1.80
2018-02-06T13:09:56.208Z,2.00
2018-02-06T13:12:27.012Z,2.10
2018-02-06T13:14:57.828Z,2.20
2018-02-06T13:17:28.645Z,2.40
2018-02-06T13:19:59.504Z,2.60
2018-02-06T13:22:30.460Z,2.70
2018-02-06T13:25:01.773Z,2.80
2018-02-06T13:27:32.591Z,2.70
2018-02-06T13:30:03.502Z,2.70
2018-02-06T13:32:35.085Z,2.80
2018-02-06T13:35:05.985Z,2.80
2018-02-06T13:37:36.904Z,3.20
2018-02-06T13:40:07.756Z,3.60
2018-02-06T13:42:39.336Z,4.00
2018-02-06T13:45:10.396Z,4.00
2018-02-06T13:47:41.256Z,4.20
2018-02-06T13:50:12.221Z,4.40
2018-02-06T13:52:43.085Z,3.70
2018-02-06T13:55:13.893Z,3.90
2018-02-06T13:57:45.650Z,4.30
2018-02-06T14:00:17.259Z,4.40
2018-02-06T14:02:48.104Z,4.40
2018-02-06T14:05:19.045Z,4.70
2018-02-06T14:07:49.882Z,4.90
2018-02-06T14:10:20.740Z,4.90
2018-02-06T14:12:51.549Z,4.80
2018-02-06T14:15:22.422Z,4.70
2018-02-06T14:17:53.569Z,5.20
2018-02-06T14:20:24.496Z,5.30
2018-02-06T14:22:55.297Z,5.40
2018-02-06T14:25:26.128Z,5.50
2018-02-06T14:27:56.921Z,5.60
2018-02-06T14:30:27.789Z,5.90
2018-02-06T14:32:58.607Z,5.80
2018-02-06T14:35:30.556Z,5.70
2018-02-06T14:38:02.281Z,5.90
2018-02-06T14:40:33.053Z,5.90
2018-02-06T14:43:04.670Z,6.20
2018-02-06T14:45:35.784Z,6.20
2018-02-06T14:48:06.633Z,6.50
2018-02-06T14:50:37.469Z,6.70
2018-02-06T14:53:08.325Z,7.00
2018-02-06T14:55:39.259Z,7.30
2018-02-06T14:58:10.239Z,6.90
2018-02-06T15:00:41.943Z,6.10
2018-02-06T15:03:14.116Z,6.10
2018-02-06T15:05:45.280Z,5.90
2018-02-06T15:08:16.887Z,6.20
2018-02-06T15:10:47.886Z,6.20
2018-02-06T15:13:18.755Z,6.40
2018-02-06T15:15:49.630Z,6.20
2018-02-06T15:18:20.591Z,6.20
2018-02-06T15:20:52.240Z,6.10
2018-02-06T15:23:24.303Z,6.40
2018-02-06T15:25:55.896Z,6.10
2018-02-06T15:28:26.902Z,6.10
2018-02-06T15:30:58.532Z,5.70
2018-02-06T15:33:29.392Z,5.70
2018-02-06T15:36:00.985Z,5.50
2018-02-06T15:38:31.801Z,5.50
2018-02-06T15:41:02.641Z,5.60
2018-02-06T15:43:33.445Z,5.10
2018-02-06T15:46:05.047Z,4.80
2018-02-06T15:48:36.036Z,4.80
2018-02-06T15:51:07.633Z,4.70
2018-02-06T15:53:38.514Z,4.60
2018-02-06T15:56:09.797Z,4.30
2018-02-06T15:58:40.777Z,3.70
2018-02-06T16:01:11.908Z,2.90
2018-02-06T16:03:42.725Z,2.20
2018-02-06T16:06:13.619Z,1.70
2018-02-06T16:08:45.301Z,0.90
2018-02-06T16:11:16.178Z,0.90
2018-02-06T16:13:47.512Z,0.70
2018-02-06T16:16:18.513Z,0.40
2018-02-06T16:18:49.397Z,0.10
2018-02-06T16:21:20.803Z,-0.10
2018-02-06T16:23:51.738Z,-0.30
2018-02-06T16:26:23.963Z,-0.40
2018-02-06T16:28:54.913Z,-0.60
2018-02-06T16:31:26.537Z,-0.80
2018-02-06T16:33:57.663Z,-0.80
2018-02-06T16:36:28.728Z,-0.90
2018-02-06T16:38:59.672Z,-1.00
2018-02-06T16:41:31.584Z,-1.20
2018-02-06T16:44:02.466Z,-1.30
2018-02-06T16:46:33.386Z,-1.30
2018-02-06T16:49:04.228Z,-1.30
2018-02-06T16:51:35.673Z,-1.40
2018-02-06T16:54:06.484Z,-1.40
2018-02-06T16:56:37.377Z,-1.50
2018-02-06T16:59:09.066Z,-1.60
2018-02-06T17:01:39.976Z,-1.60
2018-02-06T17:04:11.889Z,-1.80
2018-02-06T17:06:42.934Z,-1.70
2018-02-06T17:09:13.757Z,-1.80
2018-02-06T17:11:44.669Z,-1.90
2018-02-06T17:14:15.476Z,-1.90
2018-02-06T17:16:48.281Z,-2.00
2018-02-06T17:19:19.121Z,-2.00
2018-02-06T17:21:50.397Z,-2.10
2018-02-06T17:24:21.862Z,-2.20
2018-02-06T17:26:53.933Z,-2.30
2018-02-06T17:29:24.768Z,-2.30
2018-02-06T17:31:55.581Z,-2.40
2018-02-06T17:34:26.461Z,-2.40
2018-02-06T17:36:58.257Z,-2.50
2018-02-06T17:39:29.197Z,-2.50
2018-02-06T17:42:00.046Z,-2.50
2018-02-06T17:44:30.901Z,-2.60
2018-02-06T17:47:02.544Z,-2.60
2018-02-06T17:49:33.752Z,-2.70
2018-02-06T17:52:04.613Z,-2.70
2018-02-06T17:54:35.453Z,-2.80
2018-02-06T17:57:06.281Z,-2.80
2018-02-06T17:59:37.476Z,-2.80
2018-02-06T18:02:10.015Z,-2.70
2018-02-06T18:04:41.121Z,-2.60
2018-02-06T18:07:12.053Z,-2.60
2018-02-06T18:09:42.914Z,-2.50
2018-02-06T18:12:14.057Z,-2.50
2018-02-06T18:14:47.213Z,-2.50
2018-02-06T18:17:18.064Z,-2.50
2018-02-06T18:19:48.934Z,-2.60
2018-02-06T18:22:19.772Z,-2.60
2018-02-06T18:24:51.148Z,-2.60
2018-02-06T18:27:22.440Z,-2.60
2018-02-06T18:29:56.573Z,-2.70
2018-02-06T18:32:31.257Z,-2.60
2018-02-06T18:35:03.366Z,-2.60
2018-02-06T18:37:34.205Z,-2.60
2018-02-06T18:40:05.073Z,-2.70
2018-02-06T18:42:35.972Z,-2.70
2018-02-06T18:45:07.581Z,-2.90
2018-02-06T18:47:38.814Z,-2.90
2018-02-06T18:50:09.694Z,-2.90
2018-02-06T18:52:40.553Z,-3.00
2018-02-06T18:55:12.192Z,-3.20
2018-02-06T18:57:43.842Z,-3.50
2018-02-06T19:00:14.682Z,-3.30
2018-02-06T19:02:45.522Z,-3.40
2018-02-06T19:05:16.361Z,-3.40
2018-02-06T19:07:47.985Z,-3.40
2018-02-06T19:10:18.838Z,-3.50
2018-02-06T19:12:49.719Z,-3.40
2018-02-06T19:15:20.581Z,-3.40
2018-02-06T19:17:51.482Z,-3.50
2018-02-06T19:20:23.093Z,-3.50
2018-02-06T19:22:53.941Z,-3.50
2018-02-06T19:25:25.547Z,-3.50
2018-02-06T19:27:56.452Z,-3.50
2018-02-06T19:30:28.068Z,-3.50
2018-02-06T19:32:58.932Z,-3.50
2018-02-06T19:35:30.592Z,-3.60
2018-02-06T19:38:02.258Z,-3.60
2018-02-06T19:40:34.674Z,-3.60
2018-02-06T19:43:05.519Z,-3.50
2018-02-06T19:45:36.401Z,-3.70
2018-02-06T19:48:07.245Z,-3.70
2018-02-06T19:50:38.142Z,-3.80
2018-02-06T19:53:09.051Z,-3.90
2018-02-06T19:55:40.083Z,-4.00
2018-02-06T19:58:11.029Z,-4.00
2018-02-06T20:00:42.742Z,-4.10
2018-02-06T20:03:13.601Z,-4.10
2018-02-06T20:05:44.421Z,-4.10
2018-02-06T20:08:15.273Z,-4.10
2018-02-06T20:10:46.131Z,-4.10
2018-02-06T20:13:17.093Z,-4.20
2018-02-06T20:15:47.917Z,-4.00
2018-02-06T20:18:18.746Z,-4.30
2018-02-06T20:20:49.560Z,-3.90
2018-02-06T20:23:20.404Z,-3.90
2018-02-06T20:25:52.024Z,-3.80
2018-02-06T20:28:22.900Z,-3.80
2018-02-06T20:30:53.717Z,-3.80
2018-02-06T20:33:24.562Z,-3.70
2018-02-06T20:35:55.379Z,-3.70
2018-02-06T20:38:26.517Z,-3.70
2018-02-06T20:40:57.329Z,-3.70
2018-02-06T20:43:28.166Z,-3.80
2018-02-06T20:45:59.005Z,-3.70
2018-02-06T20:48:29.818Z,-4.00
2018-02-06T20:51:01.428Z,-4.30
2018-02-06T20:53:32.269Z,-4.30
2018-02-06T20:56:03.085Z,-4.40
2018-02-06T20:58:33.949Z,-4.40
2018-02-06T21:01:04.789Z,-4.50
2018-02-06T21:03:35.649Z,-4.50
2018-02-06T21:06:07.248Z,-4.60
2018-02-06T21:08:38.605Z,-4.60
2018-02-06T21:11:09.419Z,-4.60
2018-02-06T21:13:40.324Z,-4.60
2018-02-06T21:16:11.549Z,-4.60
2018-02-06T21:18:42.469Z,-4.70
2018-02-06T21:21:13.294Z,-4.70
2018-02-06T21:23:44.093Z,-4.70
2018-02-06T21:26:15.037Z,-4.70
2018-02-06T21:28:45.882Z,-4.70
2018-02-06T21:31:16.693Z,-4.70
2018-02-06T21:33:47.621Z,-4.80
2018-02-06T21:36:18.772Z,-4.80
2018-02-06T21:38:50.001Z,-4.80
2018-02-06T21:41:20.852Z,-4.70
2018-02-06T21:43:51.677Z,-4.60
2018-02-06T21:46:23.008Z,-4.60
2018-02-06T21:48:54.598Z,-4.60
2018-02-06T21:51:25.452Z,-4.60
2018-02-06T21:53:56.274Z,-4.60
2018-02-06T21:56:27.109Z,-4.60
2018-02-06T21:58:57.992Z,-4.70
2018-02-06T22:01:29.455Z,-4.80
2018-02-06T22:04:01.729Z,-4.90
2018-02-06T22:06:32.597Z,-5.00
2018-02-06T22:09:03.670Z,-5.10
2018-02-06T22:11:34.489Z,-5.10
2018-02-06T22:14:05.352Z,-5.20
2018-02-06T22:16:36.958Z,-5.10
2018-02-06T22:19:07.780Z,-5.20
2018-02-06T22:21:39.445Z,-5.00
2018-02-06T22:24:10.336Z,-5.00
2018-02-06T22:26:42.139Z,-4.90
2018-02-06T22:29:13.525Z,-4.90
2018-02-06T22:31:44.341Z,-4.90
2018-02-06T22:34:15.159Z,-5.00
2018-02-06T22:36:46.000Z,-5.00
2018-02-06T22:39:16.981Z,-5.00
2018-02-06T22:41:49.194Z,-5.00
2018-02-06T22:44:21.578Z,-5.00
2018-02-06T22:46:53.164Z,-5.00
2018-02-06T22:49:24.022Z,-5.00
2018-02-06T22:51:55.617Z,-5.00
2018-02-06T22:54:26.531Z,-5.10
2018-02-06T22:56:57.413Z,-5.10
2018-02-06T22:59:30.611Z,-5.10
2018-02-06T23:05:37.893Z,-5.20
2018-02-06T23:08:08.761Z,-5.30
2018-02-06T23:10:39.846Z,-5.20
2018-02-06T23:13:10.784Z,-5.20
2018-02-06T23:15:41.605Z,-5.20
2018-02-06T23:18:13.097Z,-5.20
2018-02-06T23:20:43.927Z,-5.20
2018-02-06T23:23:15.205Z,-5.20
2018-02-06T23:25:46.020Z,-5.20
2018-02-06T23:28:16.829Z,-5.30
2018-02-06T23:30:47.718Z,-5.30
2018-02-06T23:36:16.151Z,-5.40
2018-02-06T23:38:57.476Z,-5.40
2018-02-06T23:41:42.060Z,-5.50
2018-02-06T23:44:20.743Z,-5.60
2018-02-06T23:49:40.777Z,-5.70
2018-02-06T23:52:12.780Z,-5.60
2018-02-06T23:54:43.620Z,-5.60
2018-02-06T23:57:14.477Z,-5.50
2018-02-06T23:59:45.274Z,-5.50
